Time;durP1;ratioP1;P1;durP2;ratioP2;P2;SDS_P1;SDS_P2;PMS_P1;PMS_P2;Temp;Humidity;BMP_temperature;BMP_pressure;BME280_temperature;BME280_humidity;BME280_pressure;Samples;Min_cycle;Max_cycle;Signal;HPM_P1;HPM_P2
2023/03/22 00:02:08;;;;;;;23.93;22.43;;;;;;;;;;4998999;28;21004;-87
2023/03/22 00:04:35;;;;;;;22.73;21.33;;;;;;;;;;4998052;28;20934;-87
2023/03/22 00:07:02;;;;;;;23.20;21.60;;;;;;;;;;4999017;28;20490;-87
2023/03/22 00:09:29;;;;;;;23.27;21.77;;;;;;;;;;4998782;28;20516;-87
2023/03/22 00:11:56;;;;;;;24.03;22.43;;;;;;;;;;4999424;28;20436;-87
2023/03/22 00:14:23;;;;;;;24.20;22.60;;;;;;;;;;4999068;28;20524;-87
2023/03/22 00:16:52;;;;;;;23.20;21.80;;;;;;;;;;4997582;28;20467;-87
2023/03/22 00:19:19;;;;;;;24.40;22.50;;;;;;;;;;4998524;28;20497;-87
2023/03/22 00:21:46;;;;;;;22.80;21.27;;;;;;;;;;4999030;28;20508;-87
2023/03/22 00:24:13;;;;;;;24.67;23.10;;;;;;;;;;4999499;28;20504;-87
2023/03/22 00:26:40;;;;;;;24.00;22.50;;;;;;;;;;5001907;28;20431;-87
2023/03/22 00:29:07;;;;;;;25.13;23.60;;;;;;;;;;5001031;28;20500;-87
2023/03/22 00:31:34;;;;;;;23.40;21.70;;;;;;;;;;5002858;28;20535;-87
2023/03/22 00:34:03;;;;;;;23.63;22.10;;;;;;;;;;5001131;28;20457;-87
2023/03/22 00:36:30;;;;;;;24.13;22.50;;;;;;;;;;4998772;28;20440;-87
2023/03/22 00:38:57;;;;;;;25.03;23.40;;;;;;;;;;4999183;28;21050;-87
2023/03/22 00:41:25;;;;;;;21.77;20.50;;;;;;;;;;5000071;28;20848;-87
2023/03/22 00:43:52;;;;;;;23.37;21.97;;;;;;;;;;4999741;28;20457;-87
2023/03/22 00:46:20;;;;;;;23.23;21.83;;;;;;;;;;4999139;28;20935;-87
2023/03/22 00:48:47;;;;;;;23.07;21.67;;;;;;;;;;4999729;28;20477;-86
2023/03/22 00:51:16;;;;;;;24.37;22.43;;;;;;;;;;4998849;28;20518;-87
2023/03/22 00:53:44;;;;;;;25.17;23.60;;;;;;;;;;5000037;28;20721;-87
2023/03/22 00:56:14;;;;;;;23.53;21.70;;;;;;;;;;4999356;28;20419;-87
2023/03/22 00:58:41;;;;;;;24.03;22.53;;;;;;;;;;4998399;28;20452;-87
2023/03/22 01:01:12;;;;;;;25.03;23.43;;;;;;;;;;4999336;28;20872;-87
2023/03/22 01:03:39;;;;;;;24.10;22.40;;;;;;;;;;4999598;28;20929;-87
2023/03/22 01:06:06;;;;;;;24.20;22.60;;;;;;;;;;4998444;28;20498;-87
2023/03/22 01:08:37;;;;;;;24.27;22.63;;;;;;;;;;4999584;28;20473;-87
2023/03/22 01:11:05;;;;;;;25.40;23.40;;;;;;;;;;5000383;28;20564;-87
2023/03/22 01:13:32;;;;;;;23.73;22.13;;;;;;;;;;4999838;28;20456;-87
2023/03/22 01:15:59;;;;;;;24.50;22.90;;;;;;;;;;4998846;28;20539;-87
2023/03/22 01:18:26;;;;;;;24.33;22.80;;;;;;;;;;5000066;28;20477;-87
2023/03/22 01:20:53;;;;;;;24.20;22.67;;;;;;;;;;4999685;28;20454;-87
2023/03/22 01:23:20;;;;;;;24.60;23.10;;;;;;;;;;5001317;28;20473;-87
2023/03/22 01:25:49;;;;;;;23.93;22.53;;;;;;;;;;5000696;28;20450;-87
2023/03/22 01:28:16;;;;;;;24.63;22.90;;;;;;;;;;5003626;28;20498;-87
2023/03/22 01:30:43;;;;;;;24.50;22.80;;;;;;;;;;4999851;28;20456;-87
2023/03/22 01:33:10;;;;;;;25.20;23.27;;;;;;;;;;4999501;28;20432;-87
2023/03/22 01:35:37;;;;;;;22.90;21.47;;;;;;;;;;4999323;28;20432;-87
2023/03/22 01:38:04;;;;;;;23.70;22.00;;;;;;;;;;4999089;28;20463;-87
2023/03/22 01:40:31;;;;;;;24.90;23.20;;;;;;;;;;4999319;28;20506;-87
2023/03/22 01:43:00;;;;;;;24.10;22.70;;;;;;;;;;4999540;28;20436;-87
2023/03/22 01:45:34;;;;;;;23.73;22.33;;;;;;;;;;4999116;28;20480;-87
2023/03/22 01:48:03;;;;;;;23.53;21.93;;;;;;;;;;4998391;28;20476;-87
2023/03/22 01:50:31;;;;;;;24.10;22.40;;;;;;;;;;4999460;28;20860;-87
2023/03/22 01:52:59;;;;;;;23.90;22.30;;;;;;;;;;4999587;28;20453;-87
2023/03/22 01:55:27;;;;;;;23.20;21.40;;;;;;;;;;4999003;28;20776;-86
2023/03/22 01:57:54;;;;;;;24.70;23.10;;;;;;;;;;4998240;28;20873;-87
2023/03/22 02:00:23;;;;;;;23.03;21.63;;;;;;;;;;5002848;28;20453;-87
2023/03/22 02:02:51;;;;;;;23.53;21.93;;;;;;;;;;4999650;28;20443;-87
2023/03/22 02:05:21;;;;;;;23.30;21.87;;;;;;;;;;4999027;28;20848;-87
2023/03/22 02:07:48;;;;;;;23.20;21.73;;;;;;;;;;4997989;28;20540;-87
2023/03/22 02:10:16;;;;;;;23.20;21.80;;;;;;;;;;4999217;28;20472;-87
2023/03/22 02:12:48;;;;;;;24.10;22.37;;;;;;;;;;4998954;28;20432;-87
2023/03/22 02:15:19;;;;;;;24.93;23.07;;;;;;;;;;4999821;28;20427;-87
2023/03/22 02:17:53;;;;;;;23.57;21.97;;;;;;;;;;4998557;28;21040;-86
2023/03/22 02:20:40;;;;;;;23.33;21.77;;;;;;;;;;4998452;28;20440;-87
2023/03/22 02:23:22;;;;;;;24.67;22.90;;;;;;;;;;4998760;28;20458;-87
2023/03/22 02:26:01;;;;;;;23.13;21.60;;;;;;;;;;4986949;28;20423;-87
2023/03/22 02:28:34;;;;;;;23.30;21.70;;;;;;;;;;4998986;28;20473;-87
2023/03/22 02:31:19;;;;;;;23.70;22.17;;;;;;;;;;4998904;28;20858;-87
2023/03/22 02:34:07;;;;;;;22.97;21.47;;;;;;;;;;4979319;28;20423;-87
2023/03/22 02:36:48;;;;;;;23.27;21.83;;;;;;;;;;4998229;28;20810;-87
2023/03/22 02:39:26;;;;;;;23.83;22.30;;;;;;;;;;4997902;28;20496;-87
2023/03/22 02:42:03;;;;;;;25.23;23.57;;;;;;;;;;4996821;28;20492;-87
2023/03/22 02:44:36;;;;;;;24.03;22.23;;;;;;;;;;4997035;28;20414;-87
2023/03/22 02:47:05;;;;;;;24.40;22.83;;;;;;;;;;4997290;28;20897;-87
2023/03/22 02:49:35;;;;;;;26.47;24.33;;;;;;;;;;4997522;28;20482;-86
2023/03/22 02:52:04;;;;;;;24.37;22.27;;;;;;;;;;4998537;28;20456;-87
2023/03/22 02:54:36;;;;;;;21.60;20.30;;;;;;;;;;4998114;28;20509;-87
2023/03/22 02:57:05;;;;;;;23.43;21.97;;;;;;;;;;4998648;28;20843;-87
2023/03/22 02:59:36;;;;;;;24.80;23.20;;;;;;;;;;4998897;28;20497;-87
2023/03/22 03:02:03;;;;;;;23.90;22.10;;;;;;;;;;5000093;28;20481;-87
2023/03/22 03:04:32;;;;;;;24.47;22.87;;;;;;;;;;5000302;28;20413;-87
2023/03/22 03:07:02;;;;;;;23.43;21.80;;;;;;;;;;5014564;28;20436;-86
2023/03/22 03:09:30;;;;;;;23.30;21.70;;;;;;;;;;5016747;28;20472;-87
2023/03/22 03:11:58;;;;;;;23.53;22.13;;;;;;;;;;5014579;28;20456;-87
2023/03/22 03:14:26;;;;;;;23.43;22.00;;;;;;;;;;5001701;28;20544;-87
2023/03/22 03:16:59;;;;;;;21.93;20.70;;;;;;;;;;5001244;28;20424;-88
2023/03/22 03:19:33;;;;;;;24.57;22.97;;;;;;;;;;5002333;28;20527;-87
2023/03/22 03:22:02;;;;;;;23.90;22.40;;;;;;;;;;5002850;28;20465;-87
2023/03/22 03:24:34;;;;;;;24.33;22.63;;;;;;;;;;5001452;28;20519;-88
2023/03/22 03:27:05;;;;;;;23.80;22.20;;;;;;;;;;5000388;28;20458;-87
2023/03/22 03:29:37;;;;;;;23.80;22.40;;;;;;;;;;5000361;28;20493;-87
2023/03/22 03:32:06;;;;;;;24.00;22.37;;;;;;;;;;5001475;28;20518;-87
2023/03/22 03:34:35;;;;;;;24.30;22.77;;;;;;;;;;5000423;28;20458;-87
2023/03/22 03:37:07;;;;;;;24.80;23.20;;;;;;;;;;4999952;28;20494;-87
2023/03/22 03:39:35;;;;;;;24.67;23.13;;;;;;;;;;4999243;28;20500;-87
2023/03/22 03:42:05;;;;;;;22.40;21.10;;;;;;;;;;4998842;28;20446;-87
2023/03/22 03:44:33;;;;;;;23.77;22.27;;;;;;;;;;4998912;28;20453;-87
2023/03/22 03:47:00;;;;;;;23.90;22.30;;;;;;;;;;4998355;28;20449;-87
2023/03/22 03:49:27;;;;;;;24.20;22.60;;;;;;;;;;4998556;28;20473;-87
2023/03/22 03:51:55;;;;;;;25.80;23.90;;;;;;;;;;5001936;28;20908;-87
2023/03/22 03:54:23;;;;;;;24.83;23.33;;;;;;;;;;5002045;28;20812;-87
2023/03/22 03:56:50;;;;;;;25.37;23.77;;;;;;;;;;5002252;28;20567;-87
2023/03/22 03:59:19;;;;;;;26.27;24.47;;;;;;;;;;5002398;28;20560;-87
2023/03/22 04:01:50;;;;;;;24.93;23.33;;;;;;;;;;5005562;28;20536;-87
2023/03/22 04:04:24;;;;;;;25.60;23.87;;;;;;;;;;5002255;28;20450;-87
2023/03/22 04:06:52;;;;;;;26.37;24.37;;;;;;;;;;5002506;28;20433;-87
2023/03/22 04:09:19;;;;;;;24.20;22.47;;;;;;;;;;5001872;28;20984;-87
2023/03/22 04:11:46;;;;;;;25.10;23.40;;;;;;;;;;5002043;28;20481;-87
2023/03/22 04:14:13;;;;;;;25.23;23.60;;;;;;;;;;5001847;28;20427;-87
2023/03/22 04:16:42;;;;;;;24.77;22.97;;;;;;;;;;5001032;28;20446;-87
2023/03/22 04:19:09;;;;;;;24.80;23.10;;;;;;;;;;5001707;28;20436;-87
2023/03/22 04:21:36;;;;;;;26.33;24.50;;;;;;;;;;5001601;28;20433;-87
2023/03/22 04:24:04;;;;;;;26.27;24.57;;;;;;;;;;5001863;28;20530;-87
2023/03/22 04:26:31;;;;;;;26.50;24.60;;;;;;;;;;5001535;28;20952;-87
2023/03/22 04:28:58;;;;;;;27.37;25.33;;;;;;;;;;5000739;28;20875;-87
2023/03/22 04:31:25;;;;;;;27.23;24.87;;;;;;;;;;5002019;28;20456;-87
2023/03/22 04:33:55;;;;;;;25.93;24.03;;;;;;;;;;5002265;28;20456;-87
2023/03/22 04:36:22;;;;;;;26.67;24.87;;;;;;;;;;5001764;28;20453;-88
2023/03/22 04:38:49;;;;;;;26.70;24.80;;;;;;;;;;5001433;28;20812;-87
2023/03/22 04:41:17;;;;;;;24.67;23.03;;;;;;;;;;5001683;28;20918;-87
2023/03/22 04:43:45;;;;;;;25.83;23.93;;;;;;;;;;5001613;28;20432;-87
2023/03/22 04:46:13;;;;;;;25.93;23.90;;;;;;;;;;5001029;28;20523;-87
2023/03/22 04:48:40;;;;;;;23.73;22.27;;;;;;;;;;5001103;28;20461;-87
2023/03/22 04:51:10;;;;;;;25.50;23.53;;;;;;;;;;5002128;28;20469;-87
2023/03/22 04:53:38;;;;;;;24.97;23.30;;;;;;;;;;5001748;28;20409;-87
2023/03/22 04:56:05;;;;;;;25.33;23.40;;;;;;;;;;5023947;28;20907;-87
2023/03/22 04:58:32;;;;;;;25.50;23.60;;;;;;;;;;5020935;28;20581;-88
2023/03/22 05:00:59;;;;;;;24.53;23.03;;;;;;;;;;5021777;28;20440;-87
2023/03/22 05:03:27;;;;;;;27.63;25.60;;;;;;;;;;5021765;28;20431;-87
2023/03/22 05:05:55;;;;;;;25.43;23.43;;;;;;;;;;5023256;28;20445;-87
2023/03/22 05:08:24;;;;;;;24.77;23.20;;;;;;;;;;5023596;28;20463;-87
2023/03/22 05:10:52;;;;;;;26.20;24.30;;;;;;;;;;5024336;28;20431;-87
2023/03/22 05:13:19;;;;;;;25.63;23.93;;;;;;;;;;5020651;28;20539;-87
2023/03/22 05:15:46;;;;;;;25.60;23.70;;;;;;;;;;5019497;28;20431;-87
2023/03/22 05:18:14;;;;;;;25.80;24.00;;;;;;;;;;5020441;28;20499;-87
2023/03/22 05:20:41;;;;;;;25.70;24.00;;;;;;;;;;5020606;28;20423;-87
2023/03/22 05:23:09;;;;;;;23.40;21.90;;;;;;;;;;5021130;28;20418;-87
2023/03/22 05:25:38;;;;;;;25.60;23.90;;;;;;;;;;5019766;28;20542;-86
2023/03/22 05:28:05;;;;;;;26.03;24.00;;;;;;;;;;5020884;28;20463;-85
2023/03/22 05:30:34;;;;;;;25.80;24.00;;;;;;;;;;5023531;28;20444;-84
2023/03/22 05:33:02;;;;;;;26.17;24.40;;;;;;;;;;5023155;28;20483;-84
2023/03/22 05:35:29;;;;;;;27.47;25.40;;;;;;;;;;5021237;28;20937;-84
2023/03/22 05:37:57;;;;;;;26.43;24.30;;;;;;;;;;5022391;28;20445;-84
2023/03/22 05:40:25;;;;;;;26.33;24.47;;;;;;;;;;5025095;28;20566;-84
2023/03/22 05:42:54;;;;;;;26.23;24.47;;;;;;;;;;5025135;28;20453;-84
2023/03/22 05:45:22;;;;;;;23.90;22.30;;;;;;;;;;5024760;28;20456;-84
2023/03/22 05:47:50;;;;;;;24.80;22.93;;;;;;;;;;5022056;28;20478;-84
2023/03/22 05:50:18;;;;;;;25.17;23.50;;;;;;;;;;5023225;28;20906;-84
2023/03/22 05:52:46;;;;;;;24.67;23.03;;;;;;;;;;5023695;28;20443;-84
2023/03/22 05:55:13;;;;;;;24.23;22.63;;;;;;;;;;5044440;28;20472;-84
2023/03/22 05:57:40;;;;;;;24.70;23.10;;;;;;;;;;5041880;28;20498;-84
2023/03/22 06:00:12;;;;;;;22.77;21.30;;;;;;;;;;5045153;28;20864;-84
2023/03/22 06:02:39;;;;;;;26.57;24.80;;;;;;;;;;5042153;28;20812;-84
2023/03/22 06:05:07;;;;;;;24.37;22.77;;;;;;;;;;5043770;28;20885;-84
2023/03/22 06:07:34;;;;;;;25.33;23.37;;;;;;;;;;5040328;28;20437;-84
2023/03/22 06:10:01;;;;;;;22.83;21.30;;;;;;;;;;5040493;28;20488;-84
2023/03/22 06:12:28;;;;;;;24.67;22.97;;;;;;;;;;5040003;28;21014;-84
2023/03/22 06:14:55;;;;;;;25.67;23.77;;;;;;;;;;5041530;28;20420;-84
2023/03/22 06:17:24;;;;;;;26.17;24.47;;;;;;;;;;5040915;28;20448;-84
2023/03/22 06:19:53;;;;;;;25.73;23.87;;;;;;;;;;5040846;28;20930;-84
2023/03/22 06:22:20;;;;;;;25.83;24.00;;;;;;;;;;5041604;28;20504;-84
2023/03/22 06:24:48;;;;;;;25.50;23.70;;;;;;;;;;5041402;28;20444;-84
2023/03/22 06:27:16;;;;;;;24.57;22.73;;;;;;;;;;5040885;28;20530;-84
2023/03/22 06:29:48;;;;;;;26.13;23.83;;;;;;;;;;5040852;28;20453;-84
2023/03/22 06:32:15;;;;;;;22.40;20.90;;;;;;;;;;5041148;28;20488;-84
2023/03/22 06:34:44;;;;;;;24.10;22.50;;;;;;;;;;5040495;28;20453;-84
2023/03/22 06:37:11;;;;;;;24.07;22.57;;;;;;;;;;5040440;28;20471;-84
2023/03/22 06:39:40;;;;;;;25.20;23.30;;;;;;;;;;5040929;28;20452;-84
2023/03/22 06:42:08;;;;;;;21.90;20.50;;;;;;;;;;5042219;28;20403;-84
2023/03/22 06:44:35;;;;;;;24.93;23.40;;;;;;;;;;5040489;28;20432;-84
2023/03/22 06:47:03;;;;;;;24.70;22.83;;;;;;;;;;5040133;28;20453;-84
2023/03/22 06:49:30;;;;;;;25.70;23.70;;;;;;;;;;5040161;28;20487;-84
2023/03/22 06:51:58;;;;;;;20.90;19.80;;;;;;;;;;5039631;28;20455;-84
2023/03/22 06:54:25;;;;;;;23.73;22.13;;;;;;;;;;5040526;28;20540;-84
2023/03/22 06:56:52;;;;;;;21.70;20.30;;;;;;;;;;5039173;28;20452;-84
2023/03/22 06:59:19;;;;;;;23.33;21.83;;;;;;;;;;5036864;28;20852;-84
2023/03/22 07:01:47;;;;;;;22.53;21.17;;;;;;;;;;5035442;28;20510;-84
2023/03/22 07:04:14;;;;;;;23.53;21.93;;;;;;;;;;5036744;28;20463;-84
2023/03/22 07:06:41;;;;;;;22.20;20.63;;;;;;;;;;5036613;28;20542;-84
2023/03/22 07:09:10;;;;;;;24.33;22.53;;;;;;;;;;5037103;28;20493;-84
2023/03/22 07:11:37;;;;;;;24.80;23.20;;;;;;;;;;5039574;28;20455;-84
2023/03/22 07:14:04;;;;;;;22.87;21.50;;;;;;;;;;5039981;28;20462;-84
2023/03/22 07:16:31;;;;;;;22.10;20.47;;;;;;;;;;5039203;28;20484;-84
2023/03/22 07:18:58;;;;;;;24.07;22.27;;;;;;;;;;5038478;28;21015;-84
2023/03/22 07:21:25;;;;;;;24.40;22.80;;;;;;;;;;5039553;28;20440;-84
2023/03/22 07:23:53;;;;;;;24.40;22.70;;;;;;;;;;5039472;28;20433;-84
2023/03/22 07:26:22;;;;;;;24.00;22.50;;;;;;;;;;5042114;28;20450;-84
2023/03/22 07:28:49;;;;;;;21.67;20.27;;;;;;;;;;5044316;28;20483;-84
2023/03/22 07:31:16;;;;;;;22.07;20.57;;;;;;;;;;5030176;28;20900;-84
2023/03/22 07:33:44;;;;;;;23.77;22.17;;;;;;;;;;5009548;28;20456;-85
2023/03/22 07:36:11;;;;;;;23.07;21.47;;;;;;;;;;5003487;28;20420;-85
2023/03/22 07:38:38;;;;;;;24.30;22.50;;;;;;;;;;5003254;28;20560;-83
2023/03/22 07:41:06;;;;;;;23.63;21.87;;;;;;;;;;5008262;28;20465;-87
2023/03/22 07:43:34;;;;;;;24.93;23.03;;;;;;;;;;5018165;28;20420;-84
2023/03/22 07:46:01;;;;;;;23.60;22.03;;;;;;;;;;5018187;28;20437;-84
2023/03/22 07:48:29;;;;;;;22.17;20.43;;;;;;;;;;5027627;28;20461;-85
2023/03/22 07:50:56;;;;;;;23.67;22.10;;;;;;;;;;5024699;28;20442;-83
2023/03/22 07:53:24;;;;;;;22.40;21.00;;;;;;;;;;5023926;28;20450;-81
2023/03/22 07:55:51;;;;;;;24.37;22.57;;;;;;;;;;5023757;28;20457;-81
2023/03/22 07:58:18;;;;;;;19.77;18.73;;;;;;;;;;5023667;28;20456;-81
2023/03/22 08:00:48;;;;;;;23.27;21.67;;;;;;;;;;5025116;28;20415;-81
2023/03/22 08:03:15;;;;;;;20.97;19.83;;;;;;;;;;5024588;28;20446;-82
2023/03/22 08:05:43;;;;;;;24.07;22.13;;;;;;;;;;5023668;28;20448;-81
2023/03/22 08:08:12;;;;;;;24.23;22.53;;;;;;;;;;5023688;28;20484;-81
2023/03/22 08:10:39;;;;;;;22.73;21.03;;;;;;;;;;5023652;28;20509;-81
2023/03/22 08:13:06;;;;;;;23.20;21.70;;;;;;;;;;5023801;28;20484;-80
2023/03/22 08:15:36;;;;;;;22.67;21.23;;;;;;;;;;5023889;28;20925;-81
2023/03/22 08:18:04;;;;;;;23.33;21.60;;;;;;;;;;5023335;28;20478;-81
2023/03/22 08:20:31;;;;;;;22.57;21.17;;;;;;;;;;5022598;28;20625;-81
2023/03/22 08:22:58;;;;;;;23.03;21.73;;;;;;;;;;5022583;28;20453;-80
2023/03/22 08:25:25;;;;;;;21.90;20.60;;;;;;;;;;5022956;28;20431;-80
2023/03/22 08:27:52;;;;;;;24.87;22.73;;;;;;;;;;5022674;28;20476;-81
2023/03/22 08:30:20;;;;;;;23.20;21.40;;;;;;;;;;5023710;28;20830;-80
2023/03/22 08:32:47;;;;;;;22.27;20.90;;;;;;;;;;5023208;28;20985;-81
2023/03/22 08:35:16;;;;;;;22.67;21.03;;;;;;;;;;5022739;28;20415;-81
2023/03/22 08:37:43;;;;;;;23.93;22.23;;;;;;;;;;5022669;28;20483;-81
2023/03/22 08:40:10;;;;;;;22.07;20.53;;;;;;;;;;5029136;28;20434;-81
2023/03/22 08:42:37;;;;;;;20.03;18.80;;;;;;;;;;5021866;28;20465;-81
2023/03/22 08:45:05;;;;;;;22.23;20.63;;;;;;;;;;5020783;28;21038;-81
2023/03/22 08:47:32;;;;;;;19.97;18.90;;;;;;;;;;5022479;28;20444;-81
2023/03/22 08:49:59;;;;;;;22.03;20.73;;;;;;;;;;5021710;28;20511;-81
2023/03/22 08:52:28;;;;;;;21.07;19.67;;;;;;;;;;5020939;28;20453;-81
2023/03/22 08:54:55;;;;;;;22.13;20.83;;;;;;;;;;5020109;28;20437;-81
2023/03/22 08:57:22;;;;;;;20.43;19.13;;;;;;;;;;5019048;28;20450;-80
2023/03/22 08:59:51;;;;;;;23.20;21.60;;;;;;;;;;5019629;28;20468;-80
2023/03/22 09:02:18;;;;;;;23.40;21.07;;;;;;;;;;5020709;28;20449;-81
2023/03/22 09:04:46;;;;;;;21.60;20.37;;;;;;;;;;5019810;28;20444;-80
2023/03/22 09:07:13;;;;;;;23.23;21.20;;;;;;;;;;5019257;28;20814;-80
2023/03/22 09:09:41;;;;;;;22.00;20.50;;;;;;;;;;5018551;28;20518;-81
2023/03/22 09:12:08;;;;;;;26.00;21.30;;;;;;;;;;5023980;28;20452;-80
2023/03/22 09:14:35;;;;;;;21.87;19.93;;;;;;;;;;5024826;28;20538;-80
2023/03/22 09:17:02;;;;;;;21.70;20.23;;;;;;;;;;5021827;28;20841;-80
2023/03/22 09:19:30;;;;;;;21.90;20.50;;;;;;;;;;5018678;28;20488;-81
2023/03/22 09:21:57;;;;;;;22.10;20.37;;;;;;;;;;5019044;28;20452;-81
2023/03/22 09:24:24;;;;;;;22.37;20.83;;;;;;;;;;5018103;28;20539;-80
2023/03/22 09:26:53;;;;;;;24.00;21.80;;;;;;;;;;5018481;28;20448;-81
2023/03/22 09:29:20;;;;;;;22.10;20.60;;;;;;;;;;5023394;28;20488;-80
2023/03/22 09:31:48;;;;;;;21.63;20.33;;;;;;;;;;5016406;28;20497;-80
2023/03/22 09:34:15;;;;;;;21.40;20.20;;;;;;;;;;5017384;28;20463;-81
2023/03/22 09:36:42;;;;;;;22.20;20.77;;;;;;;;;;5018096;28;20431;-81
2023/03/22 09:39:09;;;;;;;21.20;20.00;;;;;;;;;;5016475;28;20447;-81
2023/03/22 09:41:38;;;;;;;21.07;19.73;;;;;;;;;;5015791;28;20907;-80
2023/03/22 09:44:08;;;;;;;23.13;21.17;;;;;;;;;;5016704;28;20411;-82
2023/03/22 09:46:37;;;;;;;21.77;20.13;;;;;;;;;;5017050;28;20429;-81
2023/03/22 09:49:06;;;;;;;20.73;19.73;;;;;;;;;;5016426;28;20472;-81
2023/03/22 09:51:38;;;;;;;24.27;22.30;;;;;;;;;;5018115;28;20473;-81
2023/03/22 09:54:11;;;;;;;22.17;20.50;;;;;;;;;;5018842;28;20451;-80
2023/03/22 09:56:39;;;;;;;20.37;19.13;;;;;;;;;;5015295;28;20427;-81
2023/03/22 09:59:13;;;;;;;23.27;21.67;;;;;;;;;;5017155;28;20534;-81
2023/03/22 10:01:44;;;;;;;25.47;23.37;;;;;;;;;;5015673;28;20473;-81
2023/03/22 10:04:28;;;;;;;21.77;20.57;;;;;;;;;;5016072;28;20428;-81
2023/03/22 10:07:00;;;;;;;22.40;21.00;;;;;;;;;;5018478;28;20433;-81
2023/03/22 10:09:30;;;;;;;22.00;20.67;;;;;;;;;;5016341;28;20846;-81
2023/03/22 10:12:03;;;;;;;21.47;20.00;;;;;;;;;;5015407;28;20466;-81
2023/03/22 10:14:33;;;;;;;21.47;20.20;;;;;;;;;;5015909;28;20638;-81
2023/03/22 10:17:04;;;;;;;21.90;20.57;;;;;;;;;;5015793;28;20511;-81
2023/03/22 10:19:34;;;;;;;29.37;22.90;;;;;;;;;;5016059;28;20447;-81
2023/03/22 10:22:02;;;;;;;21.30;20.20;;;;;;;;;;5015833;28;20465;-81
2023/03/22 10:24:32;;;;;;;20.87;19.47;;;;;;;;;;5016423;28;20421;-81
2023/03/22 10:26:59;;;;;;;21.20;19.80;;;;;;;;;;5015769;28;20460;-81
2023/03/22 10:29:29;;;;;;;19.80;18.60;;;;;;;;;;5015776;28;20491;-80
2023/03/22 10:32:06;;;;;;;19.70;18.60;;;;;;;;;;5015694;28;20501;-81
2023/03/22 10:34:33;;;;;;;19.80;18.60;;;;;;;;;;5015971;28;20484;-81
2023/03/22 10:37:02;;;;;;;22.20;20.10;;;;;;;;;;5017423;28;20483;-80
2023/03/22 10:39:31;;;;;;;20.87;19.47;;;;;;;;;;5017111;28;20447;-81
2023/03/22 10:42:00;;;;;;;24.97;22.47;;;;;;;;;;5017193;28;20452;-80
2023/03/22 10:44:28;;;;;;;19.43;18.37;;;;;;;;;;5016076;28;20439;-81
2023/03/22 10:47:00;;;;;;;22.47;20.60;;;;;;;;;;5023985;28;20506;-82
2023/03/22 10:49:30;;;;;;;21.50;20.13;;;;;;;;;;5025973;28;20481;-82
2023/03/22 10:52:00;;;;;;;19.97;18.77;;;;;;;;;;5026373;28;20452;-82
2023/03/22 10:54:27;;;;;;;20.63;19.33;;;;;;;;;;5025459;28;20455;-81
2023/03/22 10:56:54;;;;;;;22.07;20.70;;;;;;;;;;5025619;28;20441;-81
2023/03/22 10:59:39;;;;;;;21.67;20.17;;;;;;;;;;5021860;28;20468;-82
2023/03/22 11:02:17;;;;;;;22.37;20.73;;;;;;;;;;5019734;28;20895;-80
2023/03/22 11:04:47;;;;;;;21.27;20.10;;;;;;;;;;5017349;28;20538;-81
2023/03/22 11:07:16;;;;;;;21.17;19.87;;;;;;;;;;5017778;28;20430;-81
2023/03/22 11:09:44;;;;;;;20.20;19.20;;;;;;;;;;5017885;28;20454;-81
2023/03/22 11:12:13;;;;;;;21.43;20.00;;;;;;;;;;5018161;28;20513;-81
2023/03/22 11:14:43;;;;;;;22.17;20.87;;;;;;;;;;5023504;28;20481;-81
2023/03/22 11:17:14;;;;;;;21.10;19.90;;;;;;;;;;5023550;28;20426;-81
2023/03/22 11:19:41;;;;;;;21.43;19.87;;;;;;;;;;5024313;28;20829;-81
2023/03/22 11:22:17;;;;;;;21.73;20.53;;;;;;;;;;5024398;28;20444;-81
2023/03/22 11:24:47;;;;;;;21.00;19.80;;;;;;;;;;5017033;28;20475;-81
2023/03/22 11:27:19;;;;;;;21.53;19.93;;;;;;;;;;5017819;28;20438;-81
2023/03/22 11:29:47;;;;;;;21.77;20.47;;;;;;;;;;5020317;28;20488;-82
2023/03/22 11:32:26;;;;;;;21.10;19.77;;;;;;;;;;5011994;28;20485;-86
2023/03/22 11:34:59;;;;;;;21.30;19.70;;;;;;;;;;5017814;28;20558;-86
2023/03/22 11:37:26;;;;;;;20.57;19.37;;;;;;;;;;5018806;28;20468;-86
2023/03/22 11:39:59;;;;;;;21.03;19.70;;;;;;;;;;5018708;28;20459;-86
2023/03/22 11:42:26;;;;;;;23.00;21.20;;;;;;;;;;5020195;28;20472;-86
2023/03/22 11:44:55;;;;;;;21.47;20.17;;;;;;;;;;5018463;28;20447;-87
2023/03/22 11:47:25;;;;;;;21.50;20.00;;;;;;;;;;5019029;28;20512;-87
2023/03/22 11:49:55;;;;;;;21.53;20.03;;;;;;;;;;5019010;28;20450;-86
2023/03/22 11:52:23;;;;;;;19.67;18.67;;;;;;;;;;5019396;28;20457;-82
2023/03/22 11:54:50;;;;;;;19.87;18.63;;;;;;;;;;5017049;28;20467;-83
2023/03/22 11:57:20;;;;;;;20.10;19.00;;;;;;;;;;5019014;28;20449;-82
2023/03/22 11:59:54;;;;;;;21.23;20.13;;;;;;;;;;5017003;28;20512;-82
2023/03/22 12:02:26;;;;;;;20.97;19.77;;;;;;;;;;5017183;28;20411;-83
2023/03/22 12:04:59;;;;;;;21.03;19.67;;;;;;;;;;5017724;28;20433;-83
2023/03/22 12:07:27;;;;;;;20.50;19.40;;;;;;;;;;5015726;28;20451;-83
2023/03/22 12:09:58;;;;;;;21.80;20.30;;;;;;;;;;5014848;28;20476;-83
2023/03/22 12:12:26;;;;;;;21.63;20.30;;;;;;;;;;5017840;28;20933;-83
2023/03/22 12:14:55;;;;;;;21.43;20.13;;;;;;;;;;5019048;28;20488;-83
2023/03/22 12:17:29;;;;;;;21.47;20.27;;;;;;;;;;5020709;28;20452;-83
2023/03/22 12:20:00;;;;;;;21.37;20.17;;;;;;;;;;5026117;28;20403;-83
2023/03/22 12:22:33;;;;;;;21.20;20.10;;;;;;;;;;5036586;28;20461;-83
2023/03/22 12:25:04;;;;;;;20.30;19.20;;;;;;;;;;5037825;28;20424;-82
2023/03/22 12:27:34;;;;;;;21.77;20.10;;;;;;;;;;5035848;28;20454;-84
2023/03/22 12:30:04;;;;;;;21.43;20.17;;;;;;;;;;5034929;28;20435;-82
2023/03/22 12:32:34;;;;;;;21.20;19.83;;;;;;;;;;5033726;28;20471;-82
2023/03/22 12:35:05;;;;;;;21.00;19.90;;;;;;;;;;5027298;28;20513;-82
2023/03/22 12:37:34;;;;;;;21.20;20.00;;;;;;;;;;5028033;28;20433;-82
2023/03/22 12:40:04;;;;;;;20.93;19.60;;;;;;;;;;5026744;28;20457;-82
2023/03/22 12:42:34;;;;;;;20.33;19.20;;;;;;;;;;5029262;28;20437;-82
2023/03/22 12:45:02;;;;;;;22.97;20.80;;;;;;;;;;5046068;28;20501;-83
2023/03/22 12:47:32;;;;;;;21.67;20.27;;;;;;;;;;5046417;28;20451;-82
2023/03/22 12:50:04;;;;;;;21.23;19.83;;;;;;;;;;5041020;28;20482;-83
2023/03/22 12:52:33;;;;;;;21.10;19.80;;;;;;;;;;5044594;28;20444;-83
2023/03/22 12:55:01;;;;;;;21.83;20.63;;;;;;;;;;5043479;28;20503;-83
2023/03/22 12:57:29;;;;;;;21.10;19.90;;;;;;;;;;5041451;28;20466;-84
2023/03/22 12:59:57;;;;;;;21.40;20.10;;;;;;;;;;5047293;28;20537;-83
2023/03/22 13:02:26;;;;;;;21.33;19.97;;;;;;;;;;5042620;28;20915;-83
2023/03/22 13:04:55;;;;;;;21.60;20.50;;;;;;;;;;5042293;28;20443;-83
2023/03/22 13:07:37;;;;;;;21.30;19.77;;;;;;;;;;5040599;28;20474;-83
2023/03/22 13:10:19;;;;;;;20.47;19.33;;;;;;;;;;5042578;28;20510;-83
2023/03/22 13:13:07;;;;;;;20.50;19.40;;;;;;;;;;5042901;28;20474;-83
2023/03/22 13:15:35;;;;;;;21.23;19.80;;;;;;;;;;5040829;28;20487;-82
2023/03/22 13:18:03;;;;;;;21.30;20.20;;;;;;;;;;5040658;28;20462;-83
2023/03/22 13:20:32;;;;;;;19.70;18.60;;;;;;;;;;5041028;28;20436;-83
2023/03/22 13:23:09;;;;;;;20.63;19.40;;;;;;;;;;5040565;28;20447;-88
2023/03/22 13:25:37;;;;;;;19.60;18.50;;;;;;;;;;5038789;28;20421;-87
2023/03/22 13:28:05;;;;;;;19.93;18.83;;;;;;;;;;5040375;28;20466;-83
2023/03/22 13:30:34;;;;;;;20.60;19.40;;;;;;;;;;5037514;28;20462;-83
2023/03/22 13:33:03;;;;;;;20.20;19.10;;;;;;;;;;5037712;28;20462;-85
2023/03/22 13:35:38;;;;;;;21.03;19.53;;;;;;;;;;5040913;28;20494;-89
2023/03/22 13:38:08;;;;;;;20.83;19.60;;;;;;;;;;5040267;28;20829;-89
2023/03/22 13:40:38;;;;;;;19.87;18.77;;;;;;;;;;5041389;28;20428;-88
2023/03/22 13:43:12;;;;;;;20.33;19.10;;;;;;;;;;5039655;28;20485;-87
2023/03/22 13:45:57;;;;;;;21.17;19.57;;;;;;;;;;5038052;28;20744;-87
2023/03/22 13:48:29;;;;;;;23.63;21.97;;;;;;;;;;5039351;28;20486;-87
2023/03/22 13:50:57;;;;;;;21.00;19.80;;;;;;;;;;5038661;28;21021;-87
2023/03/22 13:53:30;;;;;;;20.73;19.50;;;;;;;;;;5039571;28;20493;-87
2023/03/22 13:56:03;;;;;;;20.57;19.27;;;;;;;;;;5040796;28;20529;-87
2023/03/22 13:58:36;;;;;;;21.67;20.23;;;;;;;;;;5037203;28;20450;-87
2023/03/22 14:01:03;;;;;;;20.40;19.30;;;;;;;;;;5037281;28;20474;-84
2023/03/22 14:03:33;;;;;;;20.20;18.93;;;;;;;;;;5037695;28;20843;-84
2023/03/22 14:06:08;;;;;;;22.10;20.70;;;;;;;;;;5036302;28;20983;-83
2023/03/22 14:08:38;;;;;;;20.60;19.40;;;;;;;;;;5040587;28;20479;-84
2023/03/22 14:11:11;;;;;;;22.03;20.23;;;;;;;;;;5040343;28;20454;-88
2023/03/22 14:13:41;;;;;;;21.07;19.93;;;;;;;;;;5040132;28;20529;-86
2023/03/22 14:16:10;;;;;;;21.70;20.50;;;;;;;;;;5041291;28;20519;-86
2023/03/22 14:18:40;;;;;;;21.33;20.20;;;;;;;;;;5040818;28;20450;-87
2023/03/22 14:21:08;;;;;;;21.87;20.67;;;;;;;;;;5042118;28;20479;-86
2023/03/22 14:23:38;;;;;;;21.83;20.37;;;;;;;;;;5040573;28;20438;-83
2023/03/22 14:26:08;;;;;;;22.00;20.90;;;;;;;;;;5041662;28;20437;-88
2023/03/22 14:28:36;;;;;;;20.63;19.40;;;;;;;;;;5037441;28;20479;-87